Time;durP1;ratioP1;P1;durP2;ratioP2;P2;SDS_P1;SDS_P2;PMS_P1;PMS_P2;Temp;Humidity;BMP_temperature;BMP_pressure;BME280_temperature;BME280_humidity;BME280_pressure;Samples;Min_cycle;Max_cycle;Signal;HPM_P1;HPM_P2
2022/04/17 00:00:13;;;;;;;4.82;3.30;;;5.70;99.90;;;;;;5065116;28;20238;-85
2022/04/17 00:02:40;;;;;;;4.07;3.28;;;5.80;1.00;;;;;;5064527;28;20202;-85
2022/04/17 00:05:08;;;;;;;3.13;2.83;;;5.70;99.90;;;;;;5064235;28;20234;-85
2022/04/17 00:07:35;;;;;;;4.05;3.15;;;5.70;99.90;;;;;;5064560;28;20555;-86
2022/04/17 00:10:04;;;;;;;3.47;2.38;;;5.70;99.90;;;;;;5068337;28;20223;-85
2022/04/17 00:12:31;;;;;;;2.90;2.60;;;5.80;99.90;;;;;;5070624;28;20226;-85
2022/04/17 00:15:00;;;;;;;3.05;2.75;;;;;;;;;;5071366;28;20227;-85
2022/04/17 00:17:28;;;;;;;3.35;3.05;;;5.80;99.90;;;;;;5073229;28;20217;-85
2022/04/17 00:19:55;;;;;;;3.53;3.22;;;;;;;;;;5075247;28;20184;-83
2022/04/17 00:22:23;;;;;;;3.22;2.13;;;5.80;99.90;;;;;;5077373;28;20211;-84
2022/04/17 00:24:49;;;;;;;3.10;2.90;;;5.80;99.90;;;;;;5069001;28;20685;-84
2022/04/17 00:27:16;;;;;;;2.17;2.08;;;5.80;99.90;;;;;;5079684;28;20227;-83
2022/04/17 00:29:43;;;;;;;2.72;2.53;;;5.70;99.90;;;;;;5079412;28;20230;-82
2022/04/17 00:32:10;;;;;;;4.05;3.75;;;5.70;99.90;;;;;;5079643;28;20190;-82
2022/04/17 00:34:38;;;;;;;2.95;2.70;;;5.70;99.90;;;;;;5079762;28;20233;-84
2022/04/17 00:37:05;;;;;;;2.55;2.38;;;5.60;99.90;;;;;;5073876;28;20191;-83
2022/04/17 00:39:32;;;;;;;2.67;2.58;;;5.70;99.90;;;;;;5077700;28;20221;-82
2022/04/17 00:42:00;;;;;;;3.22;2.92;;;5.70;99.90;;;;;;5076817;28;20200;-82
2022/04/17 00:44:27;;;;;;;3.03;2.80;;;5.60;1.00;;;;;;5071193;28;20203;-84
2022/04/17 00:46:54;;;;;;;2.65;2.45;;;5.80;99.90;;;;;;5063099;28;20674;-84
2022/04/17 00:49:20;;;;;;;3.60;3.13;;;5.70;99.90;;;;;;5061731;28;20204;-84
2022/04/17 00:51:49;;;;;;;2.67;2.45;;;5.50;1.00;;;;;;5063144;28;20228;-84
2022/04/17 00:54:16;;;;;;;4.05;2.50;;;6.00;1.00;;;;;;5062529;28;20234;-84
2022/04/17 00:56:43;;;;;;;2.80;2.60;;;5.70;99.90;;;;;;5062743;28;20215;-85
2022/04/17 00:59:10;;;;;;;4.38;2.50;;;5.80;99.90;;;;;;5070738;28;20207;-84
2022/04/17 01:01:37;;;;;;;2.95;2.72;;;5.80;99.90;;;;;;5069830;28;20256;-84
2022/04/17 01:04:05;;;;;;;3.60;2.60;;;5.80;99.90;;;;;;5063319;28;20610;-84
2022/04/17 01:06:32;;;;;;;3.10;2.78;;;5.70;99.90;;;;;;5062598;28;20257;-84
2022/04/17 01:09:01;;;;;;;3.50;3.03;;;5.70;99.90;;;;;;5062227;28;20692;-85
2022/04/17 01:11:28;;;;;;;2.67;2.47;;;5.70;99.90;;;;;;5062834;28;20254;-84
2022/04/17 01:13:55;;;;;;;5.10;3.47;;;5.70;99.90;;;;;;5062885;28;20204;-84
2022/04/17 01:16:23;;;;;;;2.70;2.50;;;5.70;99.90;;;;;;5062557;28;20249;-84
2022/04/17 01:18:57;;;;;;;3.53;3.22;;;5.70;99.90;;;;;;5062870;28;20266;-84
2022/04/17 01:21:25;;;;;;;3.50;3.08;;;5.60;99.90;;;;;;5060649;28;20215;-85
2022/04/17 01:29:21;;;;;;;4.20;2.97;;;5.40;1.00;;;;;;5060219;28;20202;-85
2022/04/17 01:31:48;;;;;;;3.22;2.72;;;5.40;99.90;;;;;;5060590;28;20223;-85
2022/04/17 01:34:16;;;;;;;3.13;2.92;;;5.40;99.90;;;;;;5060817;28;20208;-84
2022/04/17 01:36:44;;;;;;;3.30;2.90;;;5.30;99.90;;;;;;5061670;28;20203;-84
2022/04/17 01:39:11;;;;;;;4.00;3.22;;;5.30;99.90;;;;;;5060716;28;20207;-84
2022/04/17 01:41:37;;;;;;;3.75;2.50;;;5.30;99.90;;;;;;5061098;28;20232;-86
2022/04/17 01:44:04;;;;;;;2.85;2.65;;;5.50;99.90;;;;;;5060599;28;20211;-85
2022/04/17 01:46:31;;;;;;;2.92;2.72;;;5.50;99.90;;;;;;5060296;28;20219;-86
2022/04/17 01:48:58;;;;;;;3.50;3.03;;;5.50;99.90;;;;;;5059823;28;20257;-85
2022/04/17 01:51:25;;;;;;;2.90;2.45;;;5.50;99.90;;;;;;5060715;28;20215;-85
2022/04/17 01:53:53;;;;;;;3.22;3.03;;;5.40;99.90;;;;;;5061180;28;20206;-86
2022/04/17 01:56:19;;;;;;;2.90;2.70;;;5.40;99.90;;;;;;5061395;28;20235;-85
2022/04/17 01:58:46;;;;;;;3.33;3.05;;;5.30;99.90;;;;;;5060529;28;20203;-85
2022/04/17 02:01:13;;;;;;;2.90;2.70;;;5.30;99.90;;;;;;5060512;28;20225;-85
2022/04/17 02:03:39;;;;;;;3.53;3.22;;;5.30;99.90;;;;;;5060301;28;20206;-84
2022/04/17 02:06:07;;;;;;;4.60;3.40;;;5.40;99.90;;;;;;5060823;28;20234;-85
2022/04/17 02:08:34;;;;;;;4.00;3.38;;;5.40;1.00;;;;;;5064190;28;20187;-86
2022/04/17 02:11:02;;;;;;;3.90;3.60;;;5.30;99.90;;;;;;5077341;28;20219;-84
2022/04/17 02:13:30;;;;;;;3.08;2.85;;;5.20;99.90;;;;;;5076841;28;20218;-85
2022/04/17 02:15:57;;;;;;;3.55;3.25;;;5.00;1.00;;;;;;5077581;28;20202;-84
2022/04/17 02:18:24;;;;;;;3.17;2.97;;;5.30;99.90;;;;;;5077021;28;20203;-84
2022/04/17 02:20:50;;;;;;;3.80;3.35;;;5.30;99.90;;;;;;5077515;28;20198;-84
2022/04/17 02:23:17;;;;;;;3.30;3.00;;;5.20;99.90;;;;;;5077351;28;20199;-84
2022/04/17 02:25:44;;;;;;;3.22;2.80;;;5.20;99.90;;;;;;5077326;28;20257;-82
2022/04/17 02:28:13;;;;;;;3.45;3.22;;;5.20;99.90;;;;;;5072756;28;20214;-84
2022/04/17 02:30:40;;;;;;;3.85;3.20;;;5.20;99.90;;;;;;5061437;28;20212;-84
2022/04/17 02:33:07;;;;;;;5.45;3.30;;;5.10;99.90;;;;;;5061749;28;20199;-85
2022/04/17 02:35:34;;;;;;;3.53;3.25;;;5.00;99.90;;;;;;5058916;28;20774;-84
2022/04/17 02:38:00;;;;;;;3.65;3.25;;;4.90;99.90;;;;;;5057715;28;20210;-84
2022/04/17 02:40:27;;;;;;;3.53;3.10;;;4.80;99.90;;;;;;5062320;28;20222;-84
2022/04/17 02:42:54;;;;;;;3.47;3.17;;;4.80;99.90;;;;;;5074065;28;20222;-85
2022/04/17 02:45:22;;;;;;;4.22;3.80;;;4.70;99.90;;;;;;5073162;28;20234;-84
2022/04/17 02:47:51;;;;;;;16.55;4.07;;;4.60;1.00;;;;;;5073675;28;20203;-84
2022/04/17 02:50:19;;;;;;;3.40;3.10;;;4.60;1.00;;;;;;5067936;28;20203;-84
2022/04/17 02:52:46;;;;;;;4.10;3.70;;;4.70;1.00;;;;;;5062023;28;20207;-84
2022/04/17 02:55:13;;;;;;;4.35;3.85;;;4.70;1.00;;;;;;5061600;28;20230;-84
2022/04/17 02:57:40;;;;;;;4.00;3.65;;;4.70;1.00;;;;;;5062791;28;20210;-84
2022/04/17 03:00:09;;;;;;;3.85;3.20;;;4.60;1.00;;;;;;5063533;28;20230;-84
2022/04/17 03:05:37;;;;;;;4.07;3.78;;;4.50;1.00;;;;;;5065105;28;20725;-84
2022/04/17 03:08:05;;;;;;;4.63;3.60;;;4.50;1.00;;;;;;5064140;28;20681;-85
2022/04/17 03:10:31;;;;;;;3.35;3.10;;;4.50;1.00;;;;;;5071955;28;20282;-84
2022/04/17 03:12:58;;;;;;;5.82;3.90;;;4.60;1.00;;;;;;5077402;28;20202;-84
2022/04/17 03:15:25;;;;;;;8.88;4.47;;;4.50;1.00;;;;;;5064088;28;20226;-84
2022/04/17 03:17:53;;;;;;;5.47;3.60;;;4.50;1.00;;;;;;5061337;28;20869;-84
2022/04/17 03:20:20;;;;;;;4.07;3.60;;;4.50;1.00;;;;;;5061965;28;20761;-84
2022/04/17 03:22:47;;;;;;;4.45;4.15;;;4.50;1.00;;;;;;5061714;28;20260;-86
2022/04/17 03:25:13;;;;;;;4.10;3.70;;;4.60;1.00;;;;;;5062800;28;20793;-84
2022/04/17 03:27:43;;;;;;;7.10;3.70;;;4.60;1.00;;;;;;5066990;28;20549;-84
2022/04/17 03:30:10;;;;;;;4.70;4.13;;;4.70;1.00;;;;;;5064521;28;20214;-84
2022/04/17 03:32:37;;;;;;;4.13;3.72;;;4.60;1.00;;;;;;5072936;28;20222;-84
2022/04/17 03:35:06;;;;;;;4.00;3.58;;;4.60;1.00;;;;;;5075025;28;20226;-84
2022/04/17 03:37:33;;;;;;;3.83;3.28;;;4.60;1.00;;;;;;5067649;28;20214;-83
2022/04/17 03:40:00;;;;;;;4.50;3.55;;;4.50;1.00;;;;;;5079057;28;20243;-84
2022/04/17 03:42:26;;;;;;;4.38;3.60;;;4.50;1.00;;;;;;5079520;28;20424;-84
2022/04/17 03:44:54;;;;;;;4.38;3.97;;;4.50;1.00;;;;;;5073245;28;20763;-84
2022/04/17 03:47:20;;;;;;;5.13;3.15;;;4.50;1.00;;;;;;5060294;28;20670;-84
2022/04/17 03:49:47;;;;;;;5.55;4.03;;;4.20;38.30;;;;;;5059480;28;20674;-85
2022/04/17 03:52:15;;;;;;;5.97;4.10;;;4.20;1.00;;;;;;5059966;28;20226;-85
2022/04/17 03:54:42;;;;;;;7.25;4.93;;;;;;;;;;5061617;28;20765;-84
2022/04/17 03:57:08;;;;;;;5.70;5.00;;;4.20;1.00;;;;;;5067079;28;20209;-84
2022/04/17 03:59:36;;;;;;;7.28;6.30;;;4.10;1.00;;;;;;5062143;28;20578;-84
2022/04/17 04:02:03;;;;;;;8.45;5.43;;;4.00;1.00;;;;;;5061165;28;20195;-84
2022/04/17 04:04:30;;;;;;;6.15;5.55;;;4.00;99.90;;;;;;5065673;28;20187;-84
2022/04/17 04:06:56;;;;;;;5.88;4.97;;;4.00;1.00;;;;;;5077212;28;20214;-84
2022/04/17 04:09:24;;;;;;;6.03;4.53;;;4.00;1.00;;;;;;5070017;28;20207;-84
2022/04/17 04:11:51;;;;;;;9.48;5.82;;;4.10;1.00;;;;;;5064132;28;20219;-84
2022/04/17 04:14:18;;;;;;;6.55;4.68;;;3.90;1.00;;;;;;5065664;28;20285;-84
2022/04/17 04:16:44;;;;;;;6.70;6.07;;;4.00;1.00;;;;;;5065660;28;20609;-84
2022/04/17 04:19:13;;;;;;;6.03;4.63;;;4.00;1.00;;;;;;5065871;28;20206;-84
2022/04/17 04:21:48;;;;;;;7.28;5.38;;;4.00;1.00;;;;;;5065163;28;20226;-85
2022/04/17 04:24:19;;;;;;;7.53;5.88;;;3.90;99.90;;;;;;5068724;28;20186;-84
2022/04/17 04:28:32;;;;;;;5.53;4.47;;;3.90;99.90;;;;;;5072489;28;20439;-85
2022/04/17 04:29:35;;;;;;;8.00;5.30;;;3.90;99.90;;;;;;5068736;28;20207;-85
2022/04/17 04:32:01;;;;;;;7.13;6.20;;;3.90;60.20;;;;;;5072274;28;20225;-84
2022/04/17 04:34:29;;;;;;;4.60;4.20;;;3.80;1.00;;;;;;5078016;28;20199;-83
2022/04/17 04:36:58;;;;;;;4.80;4.40;;;3.90;99.90;;;;;;5077983;28;20237;-84
2022/04/17 04:39:24;;;;;;;5.18;4.30;;;3.90;1.00;;;;;;5070117;28;20219;-84
2022/04/17 04:41:52;;;;;;;5.30;4.68;;;3.80;1.00;;;;;;5064454;28;20203;-86
2022/04/17 04:44:19;;;;;;;5.25;4.75;;;3.70;1.00;;;;;;5076468;28;20199;-83
2022/04/17 04:46:44;;;;;;;5.25;4.60;;;3.80;99.90;;;;;;5079396;28;20206;-85
2022/04/17 04:51:55;;;;;;;6.13;4.22;;;3.90;99.90;;;;;;5077737;28;20202;-85
2022/04/17 04:54:22;;;;;;;7.95;4.20;;;4.00;99.90;;;;;;5070492;28;20203;-85
2022/04/17 04:56:49;;;;;;;5.22;4.63;;;4.10;99.90;;;;;;5062860;28;20210;-85
2022/04/17 04:59:16;;;;;;;7.05;5.00;;;4.40;1.00;;;;;;5059311;28;20203;-85
2022/04/17 05:01:43;;;;;;;4.90;4.53;;;4.10;99.90;;;;;;5060363;28;20222;-85
2022/04/17 05:04:10;;;;;;;5.57;5.00;;;4.10;99.90;;;;;;5059962;28;20257;-85
2022/04/17 05:06:36;;;;;;;5.80;5.20;;;4.30;99.90;;;;;;5061326;28;20222;-85
2022/04/17 05:09:03;;;;;;;7.82;7.10;;;4.60;1.00;;;;;;5061396;28;20249;-85
2022/04/17 05:11:31;;;;;;;6.20;5.60;;;4.50;1.00;;;;;;5061791;28;20636;-86
2022/04/17 05:13:58;;;;;;;5.82;5.22;;;4.60;1.00;;;;;;5065612;28;20203;-85
2022/04/17 05:16:26;;;;;;;6.57;5.40;;;4.70;1.00;;;;;;5068231;28;20443;-85
2022/04/17 05:19:18;;;;;;;5.22;4.72;;;4.70;1.00;;;;;;5065798;28;20210;-85
2022/04/17 05:21:40;;;;;;;5.15;4.65;;;4.80;1.00;;;;;;5077603;28;20213;-85
2022/04/17 05:24:06;;;;;;;6.28;5.50;;;7.00;1.00;;;;;;5076662;28;20194;-84
2022/04/17 05:26:33;;;;;;;6.40;5.80;;;4.90;1.00;;;;;;5075306;28;20203;-84
2022/04/17 05:29:02;;;;;;;5.30;4.72;;;4.90;1.00;;;;;;5074908;28;20237;-84
2022/04/17 05:31:30;;;;;;;4.68;4.22;;;5.00;1.00;;;;;;5076563;28;20249;-84
2022/04/17 05:33:57;;;;;;;5.75;5.25;;;5.10;1.00;;;;;;5075505;28;20198;-85
2022/04/17 05:36:23;;;;;;;5.72;4.90;;;5.10;1.00;;;;;;5076924;28;20287;-84
2022/04/17 05:38:53;;;;;;;7.93;5.25;;;5.50;1.00;;;;;;5077166;28;20230;-85
2022/04/17 05:41:20;;;;;;;8.93;5.60;;;;;;;;;;5073197;28;20192;-85
2022/04/17 05:43:47;;;;;;;5.82;5.25;;;5.10;1.00;;;;;;5073915;28;20229;-85
2022/04/17 05:46:14;;;;;;;6.78;5.18;;;5.10;1.00;;;;;;5072888;28;20234;-85
2022/04/17 05:48:42;;;;;;;5.50;4.53;;;5.30;1.00;;;;;;5068451;28;20206;-84
2022/04/17 05:51:08;;;;;;;5.47;4.88;;;5.30;1.00;;;;;;5067355;28;20215;-84
2022/04/17 05:53:36;;;;;;;6.10;5.57;;;5.30;1.00;;;;;;5066055;28;20270;-84
2022/04/17 05:56:03;;;;;;;6.97;5.00;;;5.40;1.00;;;;;;5078725;22;20262;-84
2022/04/17 05:58:29;;;;;;;5.93;5.30;;;5.40;1.00;;;;;;5064491;28;20230;-84
2022/04/17 06:00:56;;;;;;;5.30;4.90;;;5.50;1.00;;;;;;5062089;28;20609;-83
2022/04/17 06:03:23;;;;;;;7.78;6.20;;;5.50;1.00;;;;;;5063429;28;20226;-85
2022/04/17 06:05:51;;;;;;;6.72;6.03;;;5.60;1.00;;;;;;5067315;28;20250;-83
2022/04/17 06:08:19;;;;;;;5.60;5.13;;;5.60;1.00;;;;;;5069147;28;20207;-82
2022/04/17 06:10:45;;;;;;;6.03;5.40;;;5.70;1.00;;;;;;5068059;28;20209;-83
2022/04/17 06:13:12;;;;;;;7.65;5.70;;;5.80;1.00;;;;;;5065775;28;20225;-84
2022/04/17 06:15:40;;;;;;;6.10;5.60;;;5.80;1.00;;;;;;5070639;28;20250;-82
2022/04/17 06:18:07;;;;;;;5.70;5.30;;;5.90;1.00;;;;;;5067743;28;20212;-82
2022/04/17 06:20:34;;;;;;;6.28;4.85;;;6.10;1.00;;;;;;5064943;28;20200;-83
2022/04/17 06:23:02;;;;;;;5.95;5.35;;;6.10;1.00;;;;;;5062804;28;20197;-82
2022/04/17 06:25:28;;;;;;;6.20;5.60;;;6.30;1.00;;;;;;5061695;28;20226;-82
2022/04/17 06:27:56;;;;;;;6.13;5.45;;;6.50;1.00;;;;;;5062318;28;20207;-82
2022/04/17 06:30:24;;;;;;;5.80;5.20;;;6.50;1.00;;;;;;5063031;28;20266;-83
2022/04/17 06:32:51;;;;;;;5.35;4.82;;;6.40;1.00;;;;;;5063782;28;20705;-83
2022/04/17 06:35:19;;;;;;;5.90;5.20;;;6.60;1.00;;;;;;5060783;28;20271;-83
2022/04/17 06:37:46;;;;;;;5.75;5.22;;;6.70;1.00;;;;;;5060619;28;20248;-82
2022/04/17 06:40:17;;;;;;;5.05;4.65;;;6.70;1.00;;;;;;5060468;28;20578;-83
2022/04/17 06:42:46;;;;;;;4.53;4.10;;;6.80;1.00;;;;;;5060221;28;20189;-83
2022/04/17 06:45:12;;;;;;;5.28;4.78;;;6.90;1.00;;;;;;5062821;28;20225;-83
2022/04/17 06:47:39;;;;;;;4.55;4.15;;;7.10;99.90;;;;;;5064307;28;20575;-82
2022/04/17 06:50:06;;;;;;;5.03;4.63;;;7.20;1.00;;;;;;5064656;28;20265;-84
2022/04/17 06:52:33;;;;;;;4.70;4.30;;;7.40;99.90;;;;;;5064573;28;20322;-84
2022/04/17 06:55:00;;;;;;;4.95;4.55;;;7.60;99.90;;;;;;5064562;28;20508;-84
2022/04/17 06:57:31;;;;;;;4.43;3.97;;;7.70;99.90;;;;;;5067959;28;20550;-83
2022/04/17 06:59:58;;;;;;;4.43;4.03;;;7.80;99.90;;;;;;5065144;28;20450;-83
2022/04/17 07:02:25;;;;;;;3.10;2.73;;;7.80;99.90;;;;;;5065220;28;20444;-83
2022/04/17 07:04:52;;;;;;;4.30;3.90;;;7.90;99.90;;;;;;5065429;28;20465;-82
2022/04/17 07:07:18;;;;;;;3.27;3.03;;;7.90;99.90;;;;;;5074006;28;20505;-82
2022/04/17 07:09:45;;;;;;;3.37;3.07;;;7.90;1.00;;;;;;5079630;28;20497;-81
2022/04/17 07:12:11;;;;;;;3.50;3.20;;;8.20;99.90;;;;;;5079350;28;20469;-81
2022/04/17 07:14:40;;;;;;;3.63;3.33;;;7.90;1.00;;;;;;5064008;28;20431;-83
2022/04/17 07:17:07;;;;;;;4.00;3.57;;;8.40;99.90;;;;;;5066911;28;20484;-83
2022/04/17 07:19:33;;;;;;;3.50;3.20;;;8.40;99.90;;;;;;5060179;28;20446;-83
2022/04/17 07:22:00;;;;;;;4.50;4.13;;;8.90;99.90;;;;;;5060867;28;20932;-83
2022/04/17 07:24:27;;;;;;;3.90;3.60;;;8.70;99.90;;;;;;5062124;28;20452;-82
2022/04/17 07:26:54;;;;;;;3.73;3.40;;;8.80;99.90;;;;;;5063860;28;20446;-82
2022/04/17 07:29:22;;;;;;;4.93;4.43;;;8.90;99.90;;;;;;5063875;28;20481;-83
2022/04/17 07:31:50;;;;;;;4.23;3.60;;;9.00;99.90;;;;;;5064472;28;20463;-83
2022/04/17 07:34:18;;;;;;;3.03;2.73;;;9.30;1.00;;;;;;5065898;28;20804;-83
2022/04/17 07:36:47;;;;;;;3.60;3.30;;;9.00;99.90;;;;;;5064678;28;20466;-83
2022/04/17 07:39:16;;;;;;;3.40;2.90;;;9.10;99.90;;;;;;5077076;28;20462;-82
2022/04/17 07:41:42;;;;;;;2.97;2.77;;;9.20;99.90;;;;;;5078821;28;20437;-81
2022/04/17 07:44:11;;;;;;;3.60;3.37;;;9.20;99.90;;;;;;5075265;28;20446;-83
2022/04/17 07:46:38;;;;;;;2.83;2.63;;;9.30;99.90;;;;;;5070494;28;20474;-82
2022/04/17 07:49:07;;;;;;;3.40;2.90;;;9.40;99.90;;;;;;5063411;28;20505;-84
2022/04/17 07:51:34;;;;;;;3.60;2.97;;;9.50;99.90;;;;;;5062431;28;20461;-85
2022/04/17 07:54:01;;;;;;;3.30;3.10;;;9.50;99.90;;;;;;5062886;28;20547;-83
2022/04/17 07:56:28;;;;;;;2.57;2.47;;;9.60;99.90;;;;;;5063298;28;20550;-83
2022/04/17 07:58:55;;;;;;;2.73;2.57;;;9.60;99.90;;;;;;5064492;28;20479;-83
2022/04/17 08:01:22;;;;;;;2.87;2.40;;;9.70;99.90;;;;;;5063949;28;20445;-82
2022/04/17 08:03:49;;;;;;;2.43;2.23;;;9.90;99.90;;;;;;5066521;28;20560;-83
2022/04/17 08:06:20;;;;;;;2.70;2.50;;;10.00;99.90;;;;;;5067723;28;20465;-83
2022/04/17 08:08:47;;;;;;;2.67;2.47;;;10.10;99.90;;;;;;5064642;28;20422;-83
2022/04/17 08:11:14;;;;;;;2.87;2.50;;;10.20;99.90;;;;;;5063527;28;20865;-83
2022/04/17 08:13:42;;;;;;;2.87;2.50;;;10.50;1.00;;;;;;5063095;28;20481;-84
2022/04/17 08:16:09;;;;;;;3.20;2.50;;;10.30;99.90;;;;;;5063113;28;20474;-84
2022/04/17 08:18:37;;;;;;;3.33;3.00;;;10.30;99.90;;;;;;5062246;28;20465;-84
2022/04/17 08:21:04;;;;;;;3.10;2.40;;;10.50;99.90;;;;;;5063007;28;20441;-84
2022/04/17 08:23:34;;;;;;;3.47;3.00;;;10.60;99.90;;;;;;5064079;28;20450;-84
2022/04/17 08:26:02;;;;;;;3.60;3.00;;;10.60;99.90;;;;;;5066988;28;20465;-83
2022/04/17 08:28:28;;;;;;;2.93;2.60;;;10.70;99.90;;;;;;5063803;28;20445;-83
2022/04/17 08:30:55;;;;;;;3.33;2.73;;;10.90;99.90;;;;;;5064839;28;20465;-83
2022/04/17 08:33:22;;;;;;;3.23;2.93;;;11.00;99.90;;;;;;5068740;28;20855;-83
2022/04/17 08:35:48;;;;;;;4.67;3.47;;;11.10;99.90;;;;;;5064014;28;20549;-85
2022/04/17 08:38:16;;;;;;;4.50;3.03;;;11.10;99.90;;;;;;5065445;28;20507;-84
2022/04/17 08:40:44;;;;;;;3.37;3.10;;;11.20;99.90;;;;;;5066802;28;20456;-85
2022/04/17 08:43:10;;;;;;;4.20;3.50;;;10.90;99.90;;;;;;5069802;28;20449;-82
2022/04/17 08:45:38;;;;;;;3.50;2.60;;;10.70;99.90;;;;;;5068866;28;20469;-84
2022/04/17 08:48:05;;;;;;;3.83;3.00;;;10.80;99.90;;;;;;5071389;28;20438;-82
2022/04/17 08:50:33;;;;;;;4.43;3.73;;;10.90;99.90;;;;;;5072642;28;20426;-82
2022/04/17 08:53:02;;;;;;;3.50;3.20;;;11.10;99.90;;;;;;5068995;28;20504;-83
2022/04/17 08:55:30;;;;;;;7.30;4.37;;;11.30;99.90;;;;;;5064008;28;20500;-83
2022/04/17 08:57:58;;;;;;;3.53;3.00;;;11.50;99.90;;;;;;5066028;28;20457;-84
2022/04/17 09:00:24;;;;;;;4.47;4.07;;;11.30;99.90;;;;;;5064231;28;20446;-83
2022/04/17 09:02:51;;;;;;;4.77;3.40;;;11.50;1.00;;;;;;5065879;28;20441;-83
2022/04/17 09:05:20;;;;;;;3.77;2.97;;;11.70;99.90;;;;;;5062251;28;20944;-83
2022/04/17 09:07:49;;;;;;;3.97;3.40;;;11.40;99.90;;;;;;5063175;28;20441;-83
2022/04/17 09:10:27;;;;;;;3.90;3.57;;;11.20;99.90;;;;;;5064161;28;20446;-84
2022/04/17 09:12:55;;;;;;;4.77;3.13;;;11.30;99.90;;;;;;5067553;28;20481;-84
2022/04/17 09:15:30;;;;;;;3.77;3.07;;;11.30;1.00;;;;;;5069476;28;20461;-84
2022/04/17 09:17:57;;;;;;;4.17;3.50;;;11.50;99.90;;;;;;5065865;28;20448;-83
2022/04/17 09:20:24;;;;;;;4.10;3.20;;;11.80;99.90;;;;;;5062854;28;20893;-83
2022/04/17 09:22:53;;;;;;;4.40;3.33;;;11.70;99.90;;;;;;5062318;28;20604;-83
2022/04/17 09:25:22;;;;;;;4.73;3.33;;;11.80;99.90;;;;;;5061209;28;20472;-83
2022/04/17 09:27:56;;;;;;;3.20;2.90;;;11.90;99.90;;;;;;5061299;28;20445;-84
2022/04/17 09:30:29;;;;;;;3.40;3.00;;;11.90;99.90;;;;;;5060650;28;20480;-84
2022/04/17 09:32:56;;;;;;;4.57;3.47;;;11.90;99.90;;;;;;5061438;28;20481;-84
2022/04/17 09:35:23;;;;;;;4.47;3.30;;;12.00;99.90;;;;;;5070489;28;20453;-80
2022/04/17 09:37:50;;;;;;;5.40;3.90;;;11.80;99.90;;;;;;5074131;28;20441;-83
2022/04/17 09:40:20;;;;;;;3.93;2.83;;;11.90;99.90;;;;;;5077062;28;20456;-83
2022/04/17 09:42:48;;;;;;;4.37;2.70;;;12.00;99.90;;;;;;5077180;28;20469;-83
2022/04/17 09:45:15;;;;;;;2.57;2.37;;;12.10;99.90;;;;;;5077521;28;20450;-83
2022/04/17 09:47:56;;;;;;;4.03;3.63;;;11.90;99.90;;;;;;5077395;28;20486;-82
2022/04/17 09:50:30;;;;;;;5.33;4.00;;;12.10;99.90;;;;;;5076256;28;20524;-83
2022/04/17 09:52:59;;;;;;;4.87;2.70;;;12.10;99.90;;;;;;5072184;28;20547;-84
2022/04/17 09:55:31;;;;;;;3.93;2.60;;;12.20;99.90;;;;;;5070229;28;20881;-83
2022/04/17 09:57:59;;;;;;;4.57;3.43;;;12.20;99.90;;;;;;5067468;28;20458;-83
2022/04/17 10:00:26;;;;;;;4.17;3.43;;;;;;;;;;5070262;28;20430;-82
2022/04/17 10:02:54;;;;;;;2.57;2.37;;;12.30;99.90;;;;;;5076214;28;20480;-82
2022/04/17 10:05:22;;;;;;;2.63;2.43;;;12.30;99.90;;;;;;5075251;28;20471;-83
2022/04/17 10:07:50;;;;;;;3.57;3.07;;;12.30;99.90;;;;;;5068640;28;20446;-82
2022/04/17 10:10:18;;;;;;;3.77;2.87;;;12.10;99.90;;;;;;5061564;28;20446;-83
2022/04/17 10:12:46;;;;;;;4.17;3.33;;;12.20;99.90;;;;;;5061562;28;20819;-83
2022/04/17 10:15:14;;;;;;;3.10;2.67;;;;;;;;;;5063467;28;20872;-83
2022/04/17 10:17:45;;;;;;;6.87;3.20;;;12.40;99.90;;;;;;5062959;28;20465;-83
2022/04/17 10:20:14;;;;;;;6.20;3.90;;;12.40;99.90;;;;;;5069819;28;20454;-83
2022/04/17 10:22:46;;;;;;;3.00;2.57;;;12.40;99.90;;;;;;5067067;28;20450;-83
2022/04/17 10:25:14;;;;;;;3.07;2.60;;;12.80;99.90;;;;;;5065677;28;20487;-83
2022/04/17 10:27:46;;;;;;;3.63;2.40;;;12.60;99.90;;;;;;5070237;28;20456;-83
2022/04/17 10:30:15;;;;;;;2.63;2.33;;;12.80;1.00;;;;;;5075576;28;20446;-83
2022/04/17 10:33:08;;;;;;;4.33;2.87;;;12.80;1.00;;;;;;5070149;28;20450;-83
2022/04/17 10:36:05;;;;;;;5.03;2.80;;;12.70;1.00;;;;;;5068164;28;20494;-84
2022/04/17 10:38:41;;;;;;;6.00;3.47;;;13.20;1.00;;;;;;5066246;28;20433;-84
2022/04/17 10:41:10;;;;;;;4.10;2.40;;;13.00;99.90;;;;;;5065164;28;20445;-84
2022/04/17 10:43:56;;;;;;;3.67;2.40;;;13.10;99.90;;;;;;5067489;28;20519;-84
2022/04/17 10:46:23;;;;;;;3.97;2.63;;;13.00;99.90;;;;;;5065266;28;20469;-83
2022/04/17 10:48:51;;;;;;;4.23;2.97;;;12.90;99.90;;;;;;5065077;28;20429;-83
2022/04/17 10:51:22;;;;;;;2.67;2.47;;;12.90;99.90;;;;;;5068470;28;20446;-84
2022/04/17 10:54:03;;;;;;;3.20;2.30;;;12.90;99.90;;;;;;5070589;28;20469;-83
2022/04/17 10:56:32;;;;;;;2.60;2.37;;;13.00;99.90;;;;;;5069986;28;20473;-83
2022/04/17 10:59:01;;;;;;;2.30;2.10;;;13.20;99.90;;;;;;5067550;28;20430;-83
2022/04/17 11:01:50;;;;;;;2.33;1.93;;;12.90;99.90;;;;;;5064506;28;20452;-84
2022/04/17 11:04:18;;;;;;;2.10;1.90;;;13.20;99.90;;;;;;5065152;28;20461;-83
2022/04/17 11:06:47;;;;;;;2.57;2.37;;;13.40;1.00;;;;;;5065894;28;20973;-83
2022/04/17 11:09:15;;;;;;;3.30;2.97;;;13.40;99.90;;;;;;5064586;28;21014;-83
2022/04/17 11:11:45;;;;;;;2.30;2.10;;;13.90;1.00;;;;;;5065562;28;20449;-83
2022/04/17 11:14:13;;;;;;;2.30;1.90;;;13.90;99.90;;;;;;5066454;28;20539;-83
2022/04/17 11:16:45;;;;;;;2.90;2.17;;;13.60;99.90;;;;;;5065352;28;20523;-84
2022/04/17 11:19:13;;;;;;;2.07;1.87;;;13.90;99.90;;;;;;5064924;28;20474;-84
2022/04/17 11:21:44;;;;;;;3.20;2.40;;;13.80;99.90;;;;;;5065977;28;20804;-83
2022/04/17 11:24:12;;;;;;;2.97;2.50;;;13.90;99.90;;;;;;5064711;28;20434;-84
2022/04/17 11:27:08;;;;;;;2.33;2.13;;;13.70;99.90;;;;;;5073539;28;20453;-83
2022/04/17 11:29:36;;;;;;;2.87;2.60;;;13.70;99.90;;;;;;5069546;28;20613;-83
2022/04/17 11:32:03;;;;;;;3.57;2.10;;;13.80;99.90;;;;;;5071170;28;20443;-83
2022/04/17 11:34:42;;;;;;;1.73;1.63;;;14.00;99.90;;;;;;5068822;28;20477;-83
2022/04/17 11:37:08;;;;;;;2.77;1.90;;;13.90;99.90;;;;;;5067912;28;20492;-83
2022/04/17 11:39:38;;;;;;;4.63;2.80;;;13.90;99.90;;;;;;5066167;28;20529;-84
2022/04/17 11:42:05;;;;;;;2.20;2.00;;;13.90;99.90;;;;;;5070813;28;20438;-83
2022/04/17 11:44:33;;;;;;;1.87;1.77;;;13.80;99.90;;;;;;5073886;28;20422;-84
2022/04/17 11:47:00;;;;;;;3.27;2.97;;;14.00;1.00;;;;;;5067375;28;20445;-83
2022/04/17 11:49:32;;;;;;;3.23;2.60;;;14.00;99.90;;;;;;5065855;28;20437;-83
2022/04/17 11:52:10;;;;;;;2.33;1.97;;;14.00;99.90;;;;;;5065441;28;20446;-83
2022/04/17 11:54:38;;;;;;;4.33;2.43;;;13.70;99.90;;;;;;5064413;28;20788;-84
2022/04/17 11:57:05;;;;;;;2.70;2.50;;;13.70;99.90;;;;;;5142736;22;20533;-91
2022/04/17 11:59:44;;;;;;;1.93;1.73;;;13.70;99.90;;;;;;5113075;28;20436;-91
2022/04/17 12:02:14;;;;;;;2.00;1.80;;;13.90;99.90;;;;;;5113066;28;20427;-90
2022/04/17 12:04:41;;;;;;;3.10;2.13;;;14.10;99.90;;;;;;5114285;28;20432;-90
2022/04/17 12:07:08;;;;;;;2.87;2.30;;;13.90;99.90;;;;;;5132283;28;20462;-91
2022/04/17 12:09:34;;;;;;;3.20;3.00;;;14.00;99.90;;;;;;5130505;28;20436;-91
2022/04/17 12:12:02;;;;;;;2.67;2.47;;;14.00;99.90;;;;;;5131812;28;20439;-91
2022/04/17 12:14:29;;;;;;;3.13;2.93;;;13.90;99.90;;;;;;5129280;28;20471;-91
2022/04/17 12:16:56;;;;;;;2.43;2.23;;;;;;;;;;5128518;28;20463;-90
2022/04/17 12:19:25;;;;;;;1.80;1.70;;;14.50;99.90;;;;;;5134587;28;20424;-90
2022/04/17 12:21:51;;;;;;;2.10;2.00;;;14.20;99.90;;;;;;5136344;28;20451;-90
2022/04/17 12:24:18;;;;;;;2.40;2.20;;;14.30;99.90;;;;;;5137294;28;20443;-90
2022/04/17 12:26:47;;;;;;;2.27;2.07;;;14.30;99.90;;;;;;5128586;28;20505;-91
2022/04/17 12:29:15;;;;;;;3.57;2.90;;;14.30;99.90;;;;;;5128712;28;20447;-90
2022/04/17 12:31:42;;;;;;;1.67;1.57;;;14.10;99.90;;;;;;5127420;28;20502;-90
2022/04/17 12:34:13;;;;;;;2.00;1.80;;;14.00;99.90;;;;;;5128763;28;20486;-90
2022/04/17 12:36:42;;;;;;;1.90;1.70;;;14.30;99.90;;;;;;5127194;28;20466;-91
2022/04/17 12:39:09;;;;;;;4.37;2.30;;;14.50;99.90;;;;;;5126891;28;20447;-90
2022/04/17 12:41:40;;;;;;;1.97;1.73;;;14.70;99.90;;;;;;5126880;28;20451;-92
2022/04/17 12:44:07;;;;;;;2.27;2.07;;;14.80;99.90;;;;;;5124679;28;20474;-93
2022/04/17 12:46:42;;;;;;;2.53;2.33;;;14.70;99.90;;;;;;5126684;28;20467;-91
2022/04/17 12:49:10;;;;;;;2.67;2.00;;;14.60;99.90;;;;;;5128103;28;20434;-90
2022/04/17 12:51:38;;;;;;;2.40;2.20;;;14.50;99.90;;;;;;5126642;28;20441;-90
2022/04/17 12:54:09;;;;;;;2.60;2.40;;;14.60;99.90;;;;;;5125896;28;20851;-90
2022/04/17 12:56:36;;;;;;;2.57;2.10;;;14.50;99.90;;;;;;5125085;28;20472;-90
2022/04/17 12:59:04;;;;;;;2.70;2.50;;;14.60;99.90;;;;;;5126754;28;20454;-90
2022/04/17 13:01:32;;;;;;;2.37;1.80;;;14.70;99.90;;;;;;5130583;28;20470;-90
2022/04/17 13:04:16;;;;;;;2.90;2.33;;;14.90;99.90;;;;;;5127300;28;20446;-90
2022/04/17 13:06:43;;;;;;;2.23;2.07;;;14.80;99.90;;;;;;5124448;28;20531;-90
2022/04/17 13:09:13;;;;;;;2.43;2.23;;;14.80;99.90;;;;;;5124172;28;20448;-92
2022/04/17 13:11:43;;;;;;;2.77;2.57;;;14.80;99.90;;;;;;5122834;28;20890;-92
2022/04/17 13:14:10;;;;;;;4.53;2.20;;;14.70;99.90;;;;;;5123679;28;20514;-91